VLPS

Details ICAO VLPS (PKZ)
Name PAKSE
Region Laos
Timezone Asia/Vientiane (UTC+7.0)
Plans Departing 5
Arriving 2
Stats Elevation 351 ft / 107 m (AMSL)
Location 15.132051° 105.781417°
Runways 1
Magnetic Variation 0.876° W
Sunrise 2017-12-14 23:16:12 UTC / 2017-12-15 06:16:12 Local
Sunset 2017-12-15 10:30:22 UTC / 2017-12-15 17:30:22 Local
Advertisement - Login to hide

Runways

ID Width Length Bearing (true) Bearing (mag) Surface Threshold Offset Overrun Length
15 118 ft / 36 m 5,350 ft / 1,631 m 147.12° 148.00° Concrete 0 ft / 0 m 660 ft / 201 m
33 118 ft / 36 m 5,350 ft / 1,631 m 327.12° 328.00° Concrete 0 ft / 0 m 627 ft / 191 m

Map

Weather


0- 5 10 15 20 25 30 35+ Temperature / ° C

Clouds and Precipitation
Forecast for 2017-12-15 12:00 UTC. Updated an hour ago

Ground ~20,000 ft ~40,000 ft Winds

METAR

VLPS 150800Z 32008KT 9999 SCT020 SCT200 33/17 Q1010 NOSIG

TAF

TAF VLPS 150500Z 1506/1606 12006KT 9999 SCT020 FEW200

Frequencies

Tower 118.50 MHz TWR
Warning: Do not use this data for real-world aviation or navigation. No guarantee of current accuracy is given.